sensor_id;sensor_type;location;lat;lon;timestamp;pressure;altitude;pressure_sealevel;temperature;humidity
60061;BME280;45933;51.336;12.612;2024-02-23T00:00:25;97013.72;;;12.88;57.66
60061;BME280;45933;51.336;12.612;2024-02-23T00:02:51;97007.34;;;12.92;57.54
60061;BME280;45933;51.336;12.612;2024-02-23T00:05:16;97023.28;;;13.01;57.63
60061;BME280;45933;51.336;12.612;2024-02-23T00:07:41;97011.56;;;12.94;57.39
60061;BME280;45933;51.336;12.612;2024-02-23T00:10:07;96987.53;;;13.02;57.32
60061;BME280;45933;51.336;12.612;2024-02-23T00:12:32;96988.69;;;12.98;56.89
60061;BME280;45933;51.336;12.612;2024-02-23T00:14:58;96997.91;;;13.03;56.77
60061;BME280;45933;51.336;12.612;2024-02-23T00:17:23;96992.75;;;13.02;56.76
60061;BME280;45933;51.336;12.612;2024-02-23T00:19:48;97004.09;;;13.15;56.50
60061;BME280;45933;51.336;12.612;2024-02-23T00:22:14;96996.66;;;13.09;56.44
60061;BME280;45933;51.336;12.612;2024-02-23T00:24:39;97030.00;;;13.05;56.36
60061;BME280;45933;51.336;12.612;2024-02-23T00:27:06;97038.56;;;13.07;56.24
60061;BME280;45933;51.336;12.612;2024-02-23T00:29:31;97029.47;;;13.00;55.91
60061;BME280;45933;51.336;12.612;2024-02-23T00:31:56;97033.81;;;13.14;56.02
60061;BME280;45933;51.336;12.612;2024-02-23T00:34:21;97031.28;;;13.13;55.58
60061;BME280;45933;51.336;12.612;2024-02-23T00:36:47;97019.38;;;13.08;55.96
60061;BME280;45933;51.336;12.612;2024-02-23T00:39:13;97025.31;;;13.11;55.28
60061;BME280;45933;51.336;12.612;2024-02-23T00:41:38;97031.69;;;13.06;54.97
60061;BME280;45933;51.336;12.612;2024-02-23T00:44:04;97045.50;;;13.08;54.98
60061;BME280;45933;51.336;12.612;2024-02-23T00:46:29;97045.50;;;13.08;54.93
60061;BME280;45933;51.336;12.612;2024-02-23T00:48:55;97049.03;;;13.07;54.41
60061;BME280;45933;51.336;12.612;2024-02-23T00:51:20;97060.25;;;13.09;54.37
60061;BME280;45933;51.336;12.612;2024-02-23T00:53:45;97067.13;;;12.98;54.02
60061;BME280;45933;51.336;12.612;2024-02-23T00:56:11;97078.84;;;13.05;54.54
60061;BME280;45933;51.336;12.612;2024-02-23T00:58:36;97082.81;;;12.98;53.66
60061;BME280;45933;51.336;12.612;2024-02-23T01:01:01;97065.13;;;13.01;54.15
60061;BME280;45933;51.336;12.612;2024-02-23T01:03:26;97088.50;;;12.90;53.52
60061;BME280;45933;51.336;12.612;2024-02-23T01:05:52;97077.56;;;12.98;54.05
60061;BME280;45933;51.336;12.612;2024-02-23T01:08:17;97088.88;;;12.98;54.16
60061;BME280;45933;51.336;12.612;2024-02-23T01:10:43;97094.38;;;12.94;54.21
60061;BME280;45933;51.336;12.612;2024-02-23T01:13:09;97092.16;;;12.88;54.33
60061;BME280;45933;51.336;12.612;2024-02-23T01:15:34;97116.06;;;12.81;54.20
60061;BME280;45933;51.336;12.612;2024-02-23T01:17:59;97123.91;;;12.81;53.91
60061;BME280;45933;51.336;12.612;2024-02-23T01:20:24;97134.72;;;12.75;54.16
60061;BME280;45933;51.336;12.612;2024-02-23T01:22:50;97153.94;;;12.74;54.26
60061;BME280;45933;51.336;12.612;2024-02-23T01:25:15;97176.47;;;12.77;54.09
60061;BME280;45933;51.336;12.612;2024-02-23T01:27:41;97170.47;;;12.75;54.20
60061;BME280;45933;51.336;12.612;2024-02-23T01:30:07;97191.47;;;12.73;53.76
60061;BME280;45933;51.336;12.612;2024-02-23T01:32:32;97208.38;;;12.68;53.62
60061;BME280;45933;51.336;12.612;2024-02-23T01:34:58;97209.09;;;12.70;53.84
60061;BME280;45933;51.336;12.612;2024-02-23T01:37:23;97215.00;;;12.73;53.50
60061;BME280;45933;51.336;12.612;2024-02-23T01:39:48;97216.38;;;12.65;53.19
60061;BME280;45933;51.336;12.612;2024-02-23T01:42:13;97225.00;;;12.67;52.81
60061;BME280;45933;51.336;12.612;2024-02-23T01:44:39;97220.13;;;12.75;53.27
60061;BME280;45933;51.336;12.612;2024-02-23T01:47:04;97237.59;;;12.74;53.29
60061;BME280;45933;51.336;12.612;2024-02-23T01:49:29;97248.13;;;12.73;53.11
60061;BME280;45933;51.336;12.612;2024-02-23T01:52:00;97263.41;;;12.65;52.44
60061;BME280;45933;51.336;12.612;2024-02-23T01:54:27;97259.81;;;12.67;52.38
60061;BME280;45933;51.336;12.612;2024-02-23T01:56:55;97262.84;;;12.60;51.38
60061;BME280;45933;51.336;12.612;2024-02-23T01:59:21;97274.34;;;12.57;51.45
60061;BME280;45933;51.336;12.612;2024-02-23T02:01:47;97276.38;;;12.52;50.59
60061;BME280;45933;51.336;12.612;2024-02-23T02:04:12;97269.28;;;12.54;50.88
60061;BME280;45933;51.336;12.612;2024-02-23T02:06:38;97304.28;;;12.51;50.27
60061;BME280;45933;51.336;12.612;2024-02-23T02:09:03;97273.00;;;12.50;50.57
60061;BME280;45933;51.336;12.612;2024-02-23T02:11:29;97291.63;;;12.44;50.21
60061;BME280;45933;51.336;12.612;2024-02-23T02:13:54;97289.84;;;12.44;49.82
60061;BME280;45933;51.336;12.612;2024-02-23T02:16:19;97308.44;;;12.40;49.15
60061;BME280;45933;51.336;12.612;2024-02-23T02:18:44;97314.50;;;12.40;49.85
60061;BME280;45933;51.336;12.612;2024-02-23T02:21:11;97310.53;;;12.33;49.67
60061;BME280;45933;51.336;12.612;2024-02-23T02:23:36;97317.72;;;12.29;49.51
60061;BME280;45933;51.336;12.612;2024-02-23T02:26:02;97349.22;;;12.26;48.94
60061;BME280;45933;51.336;12.612;2024-02-23T02:28:28;97348.63;;;12.21;48.86
60061;BME280;45933;51.336;12.612;2024-02-23T02:30:53;97346.22;;;12.18;48.82
60061;BME280;45933;51.336;12.612;2024-02-23T02:33:19;97349.81;;;12.16;49.18
60061;BME280;45933;51.336;12.612;2024-02-23T02:35:44;97352.44;;;12.16;49.67
60061;BME280;45933;51.336;12.612;2024-02-23T02:38:12;97351.16;;;12.07;49.97
60061;BME280;45933;51.336;12.612;2024-02-23T02:40:38;97373.16;;;12.03;49.67
60061;BME280;45933;51.336;12.612;2024-02-23T02:43:03;97378.53;;;12.00;49.80
60061;BME280;45933;51.336;12.612;2024-02-23T02:45:29;97370.34;;;11.90;49.73
60061;BME280;45933;51.336;12.612;2024-02-23T02:47:54;97363.78;;;11.83;49.55
60061;BME280;45933;51.336;12.612;2024-02-23T02:50:21;97371.22;;;11.73;49.24
60061;BME280;45933;51.336;12.612;2024-02-23T02:52:46;97368.78;;;11.70;49.79
60061;BME280;45933;51.336;12.612;2024-02-23T02:55:12;97382.41;;;11.75;50.03
60061;BME280;45933;51.336;12.612;2024-02-23T02:57:37;97397.47;;;11.70;49.65
60061;BME280;45933;51.336;12.612;2024-02-23T03:00:03;97408.66;;;11.57;49.95
60061;BME280;45933;51.336;12.612;2024-02-23T03:02:34;97391.72;;;11.48;49.89
60061;BME280;45933;51.336;12.612;2024-02-23T03:04:59;97402.91;;;11.50;49.64
60061;BME280;45933;51.336;12.612;2024-02-23T03:07:25;97411.81;;;11.46;49.19
60061;BME280;45933;51.336;12.612;2024-02-23T03:09:50;97419.41;;;11.33;48.96
60061;BME280;45933;51.336;12.612;2024-02-23T03:12:16;97420.72;;;11.42;49.32
60061;BME280;45933;51.336;12.612;2024-02-23T03:14:42;97443.06;;;11.30;48.21
60061;BME280;45933;51.336;12.612;2024-02-23T03:17:08;97442.22;;;11.30;47.60
60061;BME280;45933;51.336;12.612;2024-02-23T03:19:34;97442.91;;;11.16;47.31
60061;BME280;45933;51.336;12.612;2024-02-23T03:21:59;97453.31;;;11.16;47.17
60061;BME280;45933;51.336;12.612;2024-02-23T03:24:25;97455.94;;;11.16;46.87
60061;BME280;45933;51.336;12.612;2024-02-23T03:26:50;97458.63;;;11.14;46.76
60061;BME280;45933;51.336;12.612;2024-02-23T03:29:15;97473.44;;;11.14;47.04
60061;BME280;45933;51.336;12.612;2024-02-23T03:31:41;97481.31;;;11.12;47.21
60061;BME280;45933;51.336;12.612;2024-02-23T03:34:06;97501.78;;;11.03;47.08
60061;BME280;45933;51.336;12.612;2024-02-23T03:36:33;97514.97;;;10.99;46.84
60061;BME280;45933;51.336;12.612;2024-02-23T03:38:58;97531.88;;;10.91;46.17
60061;BME280;45933;51.336;12.612;2024-02-23T03:41:24;97549.84;;;10.97;45.73
60061;BME280;45933;51.336;12.612;2024-02-23T03:43:49;97539.69;;;10.91;46.31
60061;BME280;45933;51.336;12.612;2024-02-23T03:46:14;97539.78;;;10.89;46.68
60061;BME280;45933;51.336;12.612;2024-02-23T03:48:40;97546.66;;;10.90;46.49
60061;BME280;45933;51.336;12.612;2024-02-23T03:51:06;97541.63;;;10.87;47.09
60061;BME280;45933;51.336;12.612;2024-02-23T03:53:33;97547.03;;;10.83;47.35
60061;BME280;45933;51.336;12.612;2024-02-23T03:55:58;97559.22;;;10.82;47.77
60061;BME280;45933;51.336;12.612;2024-02-23T03:58:23;97560.34;;;10.77;48.34
60061;BME280;45933;51.336;12.612;2024-02-23T04:00:48;97599.09;;;10.65;48.71
60061;BME280;45933;51.336;12.612;2024-02-23T04:03:14;97577.53;;;10.62;48.99
60061;BME280;45933;51.336;12.612;2024-02-23T04:05:39;97579.50;;;10.57;49.17
60061;BME280;45933;51.336;12.612;2024-02-23T04:08:04;97609.47;;;10.46;49.26
60061;BME280;45933;51.336;12.612;2024-02-23T04:10:30;97600.06;;;10.44;49.01
60061;BME280;45933;51.336;12.612;2024-02-23T04:12:55;97586.72;;;10.31;49.48
60061;BME280;45933;51.336;12.612;2024-02-23T04:15:20;97610.50;;;10.24;49.77
60061;BME280;45933;51.336;12.612;2024-02-23T04:17:46;97614.38;;;10.13;49.63
60061;BME280;45933;51.336;12.612;2024-02-23T04:20:11;97620.03;;;10.03;49.88
60061;BME280;45933;51.336;12.612;2024-02-23T04:22:37;97635.97;;;9.95;49.66
60061;BME280;45933;51.336;12.612;2024-02-23T04:25:03;97636.22;;;9.89;50.21
60061;BME280;45933;51.336;12.612;2024-02-23T04:27:30;97640.84;;;9.82;50.10
60061;BME280;45933;51.336;12.612;2024-02-23T04:29:55;97635.06;;;9.76;50.27
60061;BME280;45933;51.336;12.612;2024-02-23T04:32:20;97632.63;;;9.71;49.88
60061;BME280;45933;51.336;12.612;2024-02-23T04:34:45;97632.28;;;9.58;50.11
60061;BME280;45933;51.336;12.612;2024-02-23T04:40:32;97641.19;;;9.53;50.21
60061;BME280;45933;51.336;12.612;2024-02-23T04:42:57;97634.81;;;9.38;50.65
60061;BME280;45933;51.336;12.612;2024-02-23T04:45:23;97626.00;;;9.42;50.41
60061;BME280;45933;51.336;12.612;2024-02-23T04:47:48;97628.94;;;9.34;50.34
60061;BME280;45933;51.336;12.612;2024-02-23T04:50:14;97641.06;;;9.34;50.82
60061;BME280;45933;51.336;12.612;2024-02-23T04:52:39;97651.59;;;9.31;50.78
60061;BME280;45933;51.336;12.612;2024-02-23T04:55:05;97660.41;;;9.27;50.77
60061;BME280;45933;51.336;12.612;2024-02-23T04:57:31;97682.22;;;9.23;51.09
60061;BME280;45933;51.336;12.612;2024-02-23T04:59:56;97680.84;;;9.14;51.26
60061;BME280;45933;51.336;12.612;2024-02-23T05:02:22;97684.22;;;9.16;51.23
60061;BME280;45933;51.336;12.612;2024-02-23T05:04:47;97692.25;;;9.10;51.29
60061;BME280;45933;51.336;12.612;2024-02-23T05:07:12;97695.81;;;9.07;51.20
60061;BME280;45933;51.336;12.612;2024-02-23T05:09:37;97695.06;;;9.04;51.84
60061;BME280;45933;51.336;12.612;2024-02-23T05:12:03;97706.47;;;9.00;51.69
60061;BME280;45933;51.336;12.612;2024-02-23T05:14:29;97694.50;;;8.96;51.56
60061;BME280;45933;51.336;12.612;2024-02-23T05:16:54;97691.03;;;8.97;51.44
60061;BME280;45933;51.336;12.612;2024-02-23T05:19:19;97688.59;;;8.92;51.60
60061;BME280;45933;51.336;12.612;2024-02-23T05:21:44;97692.13;;;8.89;51.05
60061;BME280;45933;51.336;12.612;2024-02-23T05:24:11;97686.88;;;8.91;50.93
60061;BME280;45933;51.336;12.612;2024-02-23T05:26:36;97691.47;;;8.84;50.83
60061;BME280;45933;51.336;12.612;2024-02-23T05:29:01;97709.78;;;8.81;50.85
60061;BME280;45933;51.336;12.612;2024-02-23T05:31:44;97713.94;;;8.85;50.37
60061;BME280;45933;51.336;12.612;2024-02-23T05:34:10;97707.09;;;8.83;50.93
60061;BME280;45933;51.336;12.612;2024-02-23T05:36:35;97717.56;;;8.81;51.07
60061;BME280;45933;51.336;12.612;2024-02-23T05:39:01;97723.53;;;8.83;50.47
60061;BME280;45933;51.336;12.612;2024-02-23T05:41:26;97747.75;;;8.84;50.54
60061;BME280;45933;51.336;12.612;2024-02-23T05:43:51;97750.59;;;8.78;50.35
60061;BME280;45933;51.336;12.612;2024-02-23T05:46:16;97777.47;;;8.77;50.02
60061;BME280;45933;51.336;12.612;2024-02-23T05:48:43;97777.19;;;8.84;50.41
60061;BME280;45933;51.336;12.612;2024-02-23T05:51:08;97775.78;;;8.76;50.10
60061;BME280;45933;51.336;12.612;2024-02-23T05:53:33;97794.06;;;8.73;49.91
60061;BME280;45933;51.336;12.612;2024-02-23T05:55:59;97793.84;;;8.79;50.11
60061;BME280;45933;51.336;12.612;2024-02-23T05:58:24;97779.44;;;8.70;49.98
60061;BME280;45933;51.336;12.612;2024-02-23T06:00:50;97786.41;;;8.68;50.03
60061;BME280;45933;51.336;12.612;2024-02-23T06:03:16;97800.22;;;8.70;50.35
60061;BME280;45933;51.336;12.612;2024-02-23T06:05:43;97798.66;;;8.64;50.31
60061;BME280;45933;51.336;12.612;2024-02-23T06:08:08;97806.44;;;8.64;50.56
60061;BME280;45933;51.336;12.612;2024-02-23T06:10:33;97838.66;;;8.59;50.83
60061;BME280;45933;51.336;12.612;2024-02-23T06:12:59;97828.97;;;8.64;51.05
60061;BME280;45933;51.336;12.612;2024-02-23T06:15:24;97806.56;;;8.61;51.12
60061;BME280;45933;51.336;12.612;2024-02-23T06:17:49;97814.44;;;8.58;51.25
60061;BME280;45933;51.336;12.612;2024-02-23T06:20:15;97830.09;;;8.57;51.39
60061;BME280;45933;51.336;12.612;2024-02-23T06:22:40;97841.25;;;8.59;51.09
60061;BME280;45933;51.336;12.612;2024-02-23T06:25:05;97822.50;;;8.51;51.81
60061;BME280;45933;51.336;12.612;2024-02-23T06:27:31;97825.72;;;8.57;51.98
60061;BME280;45933;51.336;12.612;2024-02-23T06:29:56;97837.13;;;8.53;51.85
60061;BME280;45933;51.336;12.612;2024-02-23T06:32:22;97837.09;;;8.55;51.90
60061;BME280;45933;51.336;12.612;2024-02-23T06:34:47;97831.00;;;8.56;52.19
60061;BME280;45933;51.336;12.612;2024-02-23T06:37:12;97829.31;;;8.55;51.92
60061;BME280;45933;51.336;12.612;2024-02-23T06:39:38;97847.34;;;8.58;51.85
60061;BME280;45933;51.336;12.612;2024-02-23T06:42:04;97850.16;;;8.52;52.25
60061;BME280;45933;51.336;12.612;2024-02-23T06:44:30;97835.38;;;8.54;51.76
60061;BME280;45933;51.336;12.612;2024-02-23T06:46:55;97851.84;;;8.53;52.10
60061;BME280;45933;51.336;12.612;2024-02-23T06:49:20;97841.53;;;8.51;51.98
60061;BME280;45933;51.336;12.612;2024-02-23T06:51:45;97839.84;;;8.50;52.16
60061;BME280;45933;51.336;12.612;2024-02-23T06:54:11;97854.44;;;8.53;52.00
60061;BME280;45933;51.336;12.612;2024-02-23T06:56:36;97852.75;;;8.52;52.02
60061;BME280;45933;51.336;12.612;2024-02-23T06:59:02;97851.22;;;8.46;51.92
60061;BME280;45933;51.336;12.612;2024-02-23T07:01:27;97859.75;;;8.50;52.13
60061;BME280;45933;51.336;12.612;2024-02-23T07:03:53;97848.47;;;8.51;51.75
60061;BME280;45933;51.336;12.612;2024-02-23T07:06:18;97842.47;;;8.49;51.80
60061;BME280;45933;51.336;12.612;2024-02-23T07:08:44;97858.09;;;8.47;51.72
60061;BME280;45933;51.336;12.612;2024-02-23T07:11:09;97858.09;;;8.47;51.52
60061;BME280;45933;51.336;12.612;2024-02-23T07:13:34;97879.84;;;8.45;51.69
60061;BME280;45933;51.336;12.612;2024-02-23T07:16:00;97892.75;;;8.46;51.64
60061;BME280;45933;51.336;12.612;2024-02-23T07:18:25;97913.44;;;8.49;51.05
60061;BME280;45933;51.336;12.612;2024-02-23T07:20:51;97925.25;;;8.58;51.81
60061;BME280;45933;51.336;12.612;2024-02-23T07:23:16;97918.53;;;8.52;51.32
60061;BME280;45933;51.336;12.612;2024-02-23T07:25:42;97911.50;;;8.56;51.74
60061;BME280;45933;51.336;12.612;2024-02-23T07:28:07;97918.13;;;8.64;51.25
60061;BME280;45933;51.336;12.612;2024-02-23T07:30:32;97926.94;;;8.60;51.20
60061;BME280;45933;51.336;12.612;2024-02-23T07:33:00;97953.63;;;8.64;51.34
60061;BME280;45933;51.336;12.612;2024-02-23T07:35:25;97963.88;;;8.69;51.11
60061;BME280;45933;51.336;12.612;2024-02-23T07:37:50;97962.97;;;8.70;50.49
60061;BME280;45933;51.336;12.612;2024-02-23T07:40:15;97954.25;;;8.72;50.94
60061;BME280;45933;51.336;12.612;2024-02-23T07:42:41;97971.88;;;8.62;50.40
60061;BME280;45933;51.336;12.612;2024-02-23T07:45:07;97970.81;;;8.68;50.24
60061;BME280;45933;51.336;12.612;2024-02-23T07:47:32;97984.78;;;8.66;49.99
60061;BME280;45933;51.336;12.612;2024-02-23T07:49:58;97990.63;;;8.72;50.07
60061;BME280;45933;51.336;12.612;2024-02-23T07:52:23;97993.34;;;8.68;49.94
60061;BME280;45933;51.336;12.612;2024-02-23T07:54:49;97981.91;;;8.73;49.96
60061;BME280;45933;51.336;12.612;2024-02-23T07:57:17;97981.00;;;8.76;49.65
60061;BME280;45933;51.336;12.612;2024-02-23T07:59:42;97977.97;;;8.61;49.08
60061;BME280;45933;51.336;12.612;2024-02-23T08:02:07;97966.38;;;8.72;49.10
60061;BME280;45933;51.336;12.612;2024-02-23T08:04:33;97981.22;;;8.68;49.02
60061;BME280;45933;51.336;12.612;2024-02-23T08:06:59;97979.19;;;8.78;49.35
60061;BME280;45933;51.336;12.612;2024-02-23T08:09:24;97981.84;;;8.76;49.02
60061;BME280;45933;51.336;12.612;2024-02-23T08:11:49;97995.94;;;8.68;48.72
60061;BME280;45933;51.336;12.612;2024-02-23T08:14:16;98002.69;;;8.73;48.62
60061;BME280;45933;51.336;12.612;2024-02-23T08:16:41;98014.91;;;8.71;48.87
60061;BME280;45933;51.336;12.612;2024-02-23T08:19:06;98006.25;;;8.71;48.55
60061;BME280;45933;51.336;12.612;2024-02-23T08:21:32;98000.09;;;8.73;48.99
60061;BME280;45933;51.336;12.612;2024-02-23T08:23:58;98002.63;;;8.76;48.56
60061;BME280;45933;51.336;12.612;2024-02-23T08:26:25;98004.25;;;8.79;48.54
60061;BME280;45933;51.336;12.612;2024-02-23T08:28:50;98010.28;;;8.79;48.89
60061;BME280;45933;51.336;12.612;2024-02-23T08:31:15;98022.09;;;8.89;48.11
60061;BME280;45933;51.336;12.612;2024-02-23T08:33:41;98020.22;;;8.95;48.50
60061;BME280;45933;51.336;12.612;2024-02-23T08:36:07;98020.06;;;8.99;48.19
60061;BME280;45933;51.336;12.612;2024-02-23T08:38:32;98018.16;;;9.04;47.95
60061;BME280;45933;51.336;12.612;2024-02-23T08:40:58;98017.06;;;9.11;47.75
60061;BME280;45933;51.336;12.612;2024-02-23T08:43:24;98015.97;;;9.19;47.62
60061;BME280;45933;51.336;12.612;2024-02-23T08:45:49;98011.47;;;9.24;46.94
60061;BME280;45933;51.336;12.612;2024-02-23T08:48:14;98011.91;;;9.36;47.68
60061;BME280;45933;51.336;12.612;2024-02-23T08:50:40;98021.03;;;9.48;47.19
60061;BME280;45933;51.336;12.612;2024-02-23T08:53:05;98018.44;;;9.48;46.34
60061;BME280;45933;51.336;12.612;2024-02-23T08:55:30;98033.66;;;9.60;46.21
60061;BME280;45933;51.336;12.612;2024-02-23T08:57:58;98022.41;;;9.60;44.86
60061;BME280;45933;51.336;12.612;2024-02-23T09:00:23;98037.50;;;9.74;45.80
60061;BME280;45933;51.336;12.612;2024-02-23T09:02:49;98038.94;;;9.82;45.90
60061;BME280;45933;51.336;12.612;2024-02-23T09:05:18;98056.31;;;9.82;44.80
60061;BME280;45933;51.336;12.612;2024-02-23T09:07:44;98054.13;;;9.94;45.47
60061;BME280;45933;51.336;12.612;2024-02-23T09:10:10;98068.03;;;9.93;44.02
60061;BME280;45933;51.336;12.612;2024-02-23T09:12:36;98059.94;;;10.01;44.64
60061;BME280;45933;51.336;12.612;2024-02-23T09:15:02;98065.69;;;10.11;45.20
60061;BME280;45933;51.336;12.612;2024-02-23T09:17:28;98063.06;;;10.12;44.46
60061;BME280;45933;51.336;12.612;2024-02-23T09:19:53;98052.81;;;10.31;44.63
60061;BME280;45933;51.336;12.612;2024-02-23T09:22:18;98055.94;;;10.41;44.70
60061;BME280;45933;51.336;12.612;2024-02-23T09:24:43;98045.91;;;10.54;44.82
60061;BME280;45933;51.336;12.612;2024-02-23T09:27:09;98046.59;;;10.59;43.65
60061;BME280;45933;51.336;12.612;2024-02-23T09:29:34;98041.88;;;10.68;44.39
60061;BME280;45933;51.336;12.612;2024-02-23T09:32:00;98048.44;;;10.79;44.32
60061;BME280;45933;51.336;12.612;2024-02-23T09:34:26;98032.03;;;10.77;44.06
60061;BME280;45933;51.336;12.612;2024-02-23T09:36:51;98032.88;;;10.77;43.42
60061;BME280;45933;51.336;12.612;2024-02-23T09:39:16;98029.00;;;10.87;44.42
60061;BME280;45933;51.336;12.612;2024-02-23T09:41:42;98029.00;;;10.87;43.73
60061;BME280;45933;51.336;12.612;2024-02-23T09:44:08;98032.38;;;10.89;44.11
60061;BME280;45933;51.336;12.612;2024-02-23T09:46:36;98024.19;;;10.98;44.87
60061;BME280;45933;51.336;12.612;2024-02-23T09:49:02;98035.47;;;10.99;44.36
60061;BME280;45933;51.336;12.612;2024-02-23T09:51:28;98041.16;;;11.09;44.04
60061;BME280;45933;51.336;12.612;2024-02-23T09:53:54;98035.53;;;11.19;44.08
60061;BME280;45933;51.336;12.612;2024-02-23T09:56:21;98035.09;;;11.30;42.80
60061;BME280;45933;51.336;12.612;2024-02-23T09:58:50;98034.25;;;11.50;43.22
60061;BME280;45933;51.336;12.612;2024-02-23T10:01:24;98042.22;;;11.67;43.08
60061;BME280;45933;51.336;12.612;2024-02-23T10:03:52;98051.47;;;11.74;42.45
60061;BME280;45933;51.336;12.612;2024-02-23T10:06:17;98050.44;;;11.78;41.40
60061;BME280;45933;51.336;12.612;2024-02-23T10:08:44;98044.59;;;11.94;42.31
60061;BME280;45933;51.336;12.612;2024-02-23T10:11:09;98059.03;;;12.02;41.46
60061;BME280;45933;51.336;12.612;2024-02-23T10:13:34;98067.63;;;12.04;41.30
60061;BME280;45933;51.336;12.612;2024-02-23T10:15:59;98063.25;;;12.05;41.11
60061;BME280;45933;51.336;12.612;2024-02-23T10:18:25;98056.66;;;11.96;41.11
60061;BME280;45933;51.336;12.612;2024-02-23T10:20:50;98069.97;;;11.90;40.01
60061;BME280;45933;51.336;12.612;2024-02-23T10:23:17;98057.56;;;11.95;39.88
60061;BME280;45933;51.336;12.612;2024-02-23T10:25:46;98062.22;;;12.09;41.10
60061;BME280;45933;51.336;12.612;2024-02-23T10:28:12;98064.47;;;12.17;39.55
60061;BME280;45933;51.336;12.612;2024-02-23T10:30:37;98071.53;;;12.34;39.85
60061;BME280;45933;51.336;12.612;2024-02-23T10:33:12;98064.09;;;12.45;39.69
60061;BME280;45933;51.336;12.612;2024-02-23T10:35:41;98063.38;;;12.60;39.74
60061;BME280;45933;51.336;12.612;2024-02-23T10:38:08;98066.63;;;12.65;38.84
60061;BME280;45933;51.336;12.612;2024-02-23T10:40:38;98083.31;;;12.63;38.22
60061;BME280;45933;51.336;12.612;2024-02-23T10:43:12;98078.00;;;12.64;38.72
60061;BME280;45933;51.336;12.612;2024-02-23T10:45:38;98082.25;;;12.67;38.69
60061;BME280;45933;51.336;12.612;2024-02-23T10:48:11;98077.16;;;12.45;37.80
60061;BME280;45933;51.336;12.612;2024-02-23T10:50:36;98079.63;;;12.48;38.58
60061;BME280;45933;51.336;12.612;2024-02-23T10:53:04;98092.03;;;12.43;39.21
60061;BME280;45933;51.336;12.612;2024-02-23T10:55:32;98090.63;;;12.36;39.50
60061;BME280;45933;51.336;12.612;2024-02-23T10:57:58;98084.75;;;12.30;39.77
60061;BME280;45933;51.336;12.612;2024-02-23T11:00:23;98097.44;;;12.19;40.58
60061;BME280;45933;51.336;12.612;2024-02-23T11:02:53;98095.63;;;12.21;39.92
60061;BME280;45933;51.336;12.612;2024-02-23T11:05:20;98105.56;;;12.13;40.33
60061;BME280;45933;51.336;12.612;2024-02-23T11:07:48;98108.56;;;12.04;39.77
60061;BME280;45933;51.336;12.612;2024-02-23T11:10:15;98110.50;;;11.99;40.35
60061;BME280;45933;51.336;12.612;2024-02-23T11:12:40;98111.47;;;11.96;40.88
60061;BME280;45933;51.336;12.612;2024-02-23T11:15:06;98105.38;;;11.97;40.91
60061;BME280;45933;51.336;12.612;2024-02-23T11:17:35;98107.97;;;11.75;40.31
60061;BME280;45933;51.336;12.612;2024-02-23T11:20:03;98108.13;;;11.72;40.25
60061;BME280;45933;51.336;12.612;2024-02-23T11:22:35;98121.34;;;11.68;40.43
60061;BME280;45933;51.336;12.612;2024-02-23T11:25:04;98123.38;;;11.61;39.94
60061;BME280;45933;51.336;12.612;2024-02-23T11:27:31;98130.66;;;11.53;40.03
60061;BME280;45933;51.336;12.612;2024-02-23T11:30:07;98126.91;;;11.60;40.54
60061;BME280;45933;51.336;12.612;2024-02-23T11:32:40;98135.81;;;11.55;40.35
60061;BME280;45933;51.336;12.612;2024-02-23T11:35:13;98143.47;;;11.37;39.71
60061;BME280;45933;51.336;12.612;2024-02-23T11:37:51;98138.56;;;11.30;39.89
60061;BME280;45933;51.336;12.612;2024-02-23T11:40:21;98132.78;;;11.21;39.54
60061;BME280;45933;51.336;12.612;2024-02-23T11:42:47;98141.19;;;11.06;39.59
60061;BME280;45933;51.336;12.612;2024-02-23T11:45:12;98128.47;;;10.98;39.91
60061;BME280;45933;51.336;12.612;2024-02-23T11:47:38;98116.25;;;10.77;40.74
60061;BME280;45933;51.336;12.612;2024-02-23T11:50:07;98118.69;;;10.58;40.09
60061;BME280;45933;51.336;12.612;2024-02-23T11:52:38;98122.94;;;10.84;40.24
60061;BME280;45933;51.336;12.612;2024-02-23T11:55:04;98122.25;;;10.79;39.56
60061;BME280;45933;51.336;12.612;2024-02-23T11:57:34;98112.00;;;10.74;39.90
60061;BME280;45933;51.336;12.612;2024-02-23T12:00:01;98115.34;;;10.78;39.93
60061;BME280;45933;51.336;12.612;2024-02-23T12:02:31;98099.50;;;10.61;39.84
60061;BME280;45933;51.336;12.612;2024-02-23T12:04:57;98114.47;;;10.54;39.61
60061;BME280;45933;51.336;12.612;2024-02-23T12:07:22;98103.50;;;10.69;40.31
60061;BME280;45933;51.336;12.612;2024-02-23T12:09:48;98103.50;;;10.69;40.59
60061;BME280;45933;51.336;12.612;2024-02-23T12:12:13;98099.66;;;10.56;40.00
60061;BME280;45933;51.336;12.612;2024-02-23T12:14:39;98112.28;;;10.67;40.32
60061;BME280;45933;51.336;12.612;2024-02-23T12:17:05;98117.75;;;10.61;40.07
60061;BME280;45933;51.336;12.612;2024-02-23T12:19:32;98114.00;;;10.68;40.58
60061;BME280;45933;51.336;12.612;2024-02-23T12:22:01;98109.72;;;10.42;40.07
60061;BME280;45933;51.336;12.612;2024-02-23T12:24:26;98114.56;;;10.53;41.05
60061;BME280;45933;51.336;12.612;2024-02-23T12:26:54;98114.47;;;10.54;40.45
60061;BME280;45933;51.336;12.612;2024-02-23T12:29:20;98105.50;;;10.39;40.96
60061;BME280;45933;51.336;12.612;2024-02-23T12:31:45;98110.31;;;10.50;41.21
60061;BME280;45933;51.336;12.612;2024-02-23T12:34:14;98098.25;;;10.47;40.90
60061;BME280;45933;51.336;12.612;2024-02-23T12:36:39;98101.25;;;10.60;41.17
60061;BME280;45933;51.336;12.612;2024-02-23T12:39:05;98106.56;;;10.57;41.13
60061;BME280;45933;51.336;12.612;2024-02-23T12:41:30;98115.75;;;10.44;41.43
60061;BME280;45933;51.336;12.612;2024-02-23T12:43:55;98105.69;;;10.33;41.17
60061;BME280;45933;51.336;12.612;2024-02-23T12:46:24;98125.81;;;10.53;41.01
60061;BME280;45933;51.336;12.612;2024-02-23T12:48:50;98113.34;;;10.38;41.32